Time;durP1;ratioP1;P1;durP2;ratioP2;P2;SDS_P1;SDS_P2;PMS_P1;PMS_P2;Temp;Humidity;BMP_temperature;BMP_pressure;BME280_temperature;BME280_humidity;BME280_pressure;Samples;Min_cycle;Max_cycle;Signal;HPM_P1;HPM_P2
2020/12/05 00:02:09;;;;;;;28.75;18.83;;;;;;;8.08;70.25;93720.50;5010747;28;20041;-82
2020/12/05 00:04:35;;;;;;;27.42;18.33;;;;;;;8.17;70.79;93717.03;5011008;28;20060;-81
2020/12/05 00:07:00;;;;;;;29.77;19.70;;;;;;;8.21;70.77;93718.03;5010682;28;20053;-82
2020/12/05 00:09:26;;;;;;;34.72;21.48;;;;;;;8.26;71.23;93736.44;5015079;28;20370;-82
2020/12/05 00:11:51;;;;;;;34.08;20.88;;;;;;;8.27;71.14;93727.47;5014214;28;20049;-82
2020/12/05 00:14:17;;;;;;;29.83;19.65;;;;;;;8.33;71.05;93715.09;5009840;28;20470;-82
2020/12/05 00:16:42;;;;;;;28.77;19.90;;;;;;;8.40;70.86;93714.78;5012644;28;20041;-82
2020/12/05 00:19:08;;;;;;;36.40;23.02;;;;;;;8.38;71.06;93717.69;5016069;28;20060;-83
2020/12/05 00:21:33;;;;;;;34.25;20.52;;;;;;;8.46;70.89;93727.59;5011065;28;20064;-82
2020/12/05 00:23:59;;;;;;;28.90;21.00;;;;;;;8.50;70.70;93733.13;5012940;28;20422;-82
2020/12/05 00:26:24;;;;;;;26.10;18.77;;;;;;;8.53;70.80;93729.94;5012047;28;20052;-82
2020/12/05 00:28:50;;;;;;;28.75;19.55;;;;;;;8.58;70.01;93735.16;5012078;28;20102;-82
2020/12/05 00:31:16;;;;;;;29.50;18.30;;;;;;;8.62;69.60;93736.16;5011061;28;20053;-82
2020/12/05 00:33:43;;;;;;;30.42;19.48;;;;;;;8.64;69.75;93739.31;5012001;28;20034;-82
2020/12/05 00:36:09;;;;;;;28.13;18.88;;;;;;;8.71;69.44;93731.88;5013786;28;20033;-82
2020/12/05 00:38:36;;;;;;;25.30;16.45;;;;;;;8.77;68.52;93745.78;5011299;28;20155;-82
2020/12/05 00:41:04;;;;;;;27.35;17.85;;;;;;;8.75;67.82;93743.41;5007676;28;20042;-82
2020/12/05 00:43:33;;;;;;;22.23;17.50;;;;;;;8.73;67.56;93748.19;5011876;28;20034;-82
2020/12/05 00:45:59;;;;;;;27.08;18.80;;;;;;;8.72;67.65;93749.25;5012736;28;20044;-82
2020/12/05 00:48:24;;;;;;;24.13;17.67;;;;;;;8.68;68.21;93759.56;5016700;28;20026;-81
2020/12/05 00:50:50;;;;;;;22.38;14.20;;;;;;;8.57;67.69;93752.03;5023745;28;20042;-82
2020/12/05 00:53:16;;;;;;;18.45;13.13;;;;;;;8.58;67.51;93766.75;5000285;28;20390;-82
2020/12/05 00:55:44;;;;;;;30.65;19.70;;;;;;;8.55;67.73;93772.59;5020158;28;20042;-82
2020/12/05 00:58:10;;;;;;;42.13;23.42;;;;;;;8.51;67.64;93761.81;5012277;28;20176;-82
2020/12/05 01:00:35;;;;;;;34.80;21.27;;;;;;;8.40;68.02;93749.00;4993261;28;20120;-82
2020/12/05 01:03:01;;;;;;;27.20;17.17;;;;;;;8.40;68.60;93756.91;4995641;28;20471;-82
2020/12/05 01:05:26;;;;;;;36.13;19.65;;;;;;;8.23;68.45;93737.00;4992721;28;20034;-82
2020/12/05 01:07:52;;;;;;;30.63;18.02;;;;;;;8.35;67.62;93754.31;5008263;28;20071;-82
2020/12/05 01:10:17;;;;;;;29.58;18.35;;;;;;;8.25;67.95;93753.31;5012759;28;20038;-82
2020/12/05 01:12:43;;;;;;;29.40;18.40;;;;;;;8.24;67.79;93753.56;4993293;28;20027;-82
2020/12/05 01:15:08;;;;;;;20.58;14.25;;;;;;;8.22;68.61;93761.72;4996211;28;20564;-82
2020/12/05 01:17:35;;;;;;;33.70;19.95;;;;;;;8.22;68.68;93763.56;5013607;28;20600;-82
2020/12/05 01:20:06;;;;;;;55.63;31.42;;;;;;;8.18;68.26;93754.66;5012912;28;20034;-82
2020/12/05 01:22:32;;;;;;;37.80;16.70;;;;;;;8.16;68.42;93756.81;4993400;28;20499;-82
2020/12/05 01:24:58;;;;;;;30.63;18.60;;;;;;;8.15;67.89;93750.75;4996076;28;20045;-82
2020/12/05 01:27:23;;;;;;;33.75;19.85;;;;;;;8.02;68.67;93756.59;4997492;28;20033;-82
2020/12/05 01:29:49;;;;;;;27.27;18.58;;;;;;;7.95;69.66;93760.63;4999794;28;20099;-82
2020/12/05 01:32:14;;;;;;;26.98;18.58;;;;;;;7.94;68.44;93754.56;5010510;28;20042;-82
2020/12/05 01:34:40;;;;;;;70.35;37.45;;;;;;;7.91;68.32;93752.47;5004316;28;20038;-82
2020/12/05 01:37:06;;;;;;;139.50;63.33;;;;;;;7.87;68.07;93754.06;4997550;28;20041;-82
2020/12/05 01:39:31;;;;;;;100.32;50.13;;;;;;;7.90;67.86;93765.91;4998977;28;20021;-82
2020/12/05 01:41:57;;;;;;;47.58;28.48;;;;;;;7.81;68.40;93752.53;4994109;28;20034;-82
2020/12/05 01:44:23;;;;;;;50.08;30.27;;;;;;;7.85;68.63;93766.72;4996264;28;20080;-82
2020/12/05 01:46:49;;;;;;;37.22;24.58;;;;;;;7.81;68.70;93771.75;4998865;28;20052;-82
2020/12/05 01:49:17;;;;;;;27.23;18.23;;;;;;;7.79;69.45;93773.06;5003291;28;20391;-82
2020/12/05 01:51:44;;;;;;;21.60;14.80;;;;;;;7.78;69.25;93771.47;4993440;28;20173;-82
2020/12/05 01:54:10;;;;;;;23.73;15.52;;;;;;;7.73;69.25;93774.94;5000617;28;20029;-81
2020/12/05 01:56:36;;;;;;;26.42;16.70;;;;;;;7.66;68.93;93761.31;5000838;28;20046;-82
2020/12/05 01:59:01;;;;;;;28.58;18.42;;;;;;;7.65;68.86;93764.19;4994298;28;20481;-82
2020/12/05 02:01:28;;;;;;;24.58;18.20;;;;;;;7.64;69.20;93754.72;4993614;28;20034;-82
2020/12/05 02:03:55;;;;;;;23.05;16.25;;;;;;;7.67;69.58;93764.72;4993241;28;20398;-82
2020/12/05 02:06:31;;;;;;;23.35;15.98;;;;;;;7.65;70.06;93759.72;5001638;28;20113;-82
2020/12/05 02:09:03;;;;;;;23.00;15.80;;;;;;;7.62;70.47;93767.38;4994880;28;20046;-82
2020/12/05 02:11:32;;;;;;;22.42;15.77;;;;;;;7.56;70.67;93765.81;4998280;28;20072;-82
2020/12/05 02:14:02;;;;;;;22.15;15.95;;;;;;;7.52;71.05;93749.00;4992811;28;20049;-82
2020/12/05 02:16:28;;;;;;;20.13;14.63;;;;;;;7.57;71.02;93762.13;5000753;28;20049;-82
2020/12/05 02:18:56;;;;;;;24.63;17.08;;;;;;;7.45;70.92;93738.78;5013394;28;20021;-82
2020/12/05 02:21:26;;;;;;;26.08;16.58;;;;;;;7.55;71.22;93761.59;5014747;28;20060;-82
2020/12/05 02:23:52;;;;;;;23.58;17.00;;;;;;;7.53;71.07;93761.88;5012144;28;20040;-82
2020/12/05 02:26:19;;;;;;;26.90;18.80;;;;;;;7.53;71.20;93761.09;5014110;28;20041;-82
2020/12/05 02:28:45;;;;;;;21.67;16.23;;;;;;;7.51;71.31;93747.44;5011191;28;20068;-82
2020/12/05 02:31:10;;;;;;;25.98;17.38;;;;;;;7.55;71.24;93745.84;4992274;28;20062;-82
2020/12/05 02:33:36;;;;;;;24.15;16.48;;;;;;;7.59;71.42;93752.13;4990422;28;20041;-82
2020/12/05 02:36:02;;;;;;;24.45;16.85;;;;;;;7.59;71.86;93752.91;4994881;28;20438;-82
2020/12/05 02:39:00;;;;;;;23.67;17.65;;;;;;;7.70;72.15;93753.66;5002670;28;20049;-82
2020/12/05 02:41:27;;;;;;;22.60;16.83;;;;;;;7.73;71.44;93758.34;5008668;28;20775;-82
2020/12/05 02:43:52;;;;;;;21.05;15.18;;;;;;;7.70;71.20;93756.28;5014463;28;20045;-82
2020/12/05 02:46:18;;;;;;;23.73;16.10;;;;;;;7.71;70.78;93755.22;5012787;28;20045;-81
2020/12/05 02:48:43;;;;;;;24.48;17.17;;;;;;;7.69;71.07;93757.31;5010019;28;20022;-82
2020/12/05 02:51:09;;;;;;;23.50;16.42;;;;;;;7.72;71.18;93762.06;5017446;28;20470;-81
2020/12/05 02:53:34;;;;;;;26.35;16.42;;;;;;;7.78;70.99;93760.97;5014453;28;20041;-82
2020/12/05 02:56:00;;;;;;;21.88;16.10;;;;;;;7.82;70.91;93757.50;5012119;28;20293;-82
2020/12/05 02:58:25;;;;;;;21.55;15.15;;;;;;;7.81;71.32;93763.06;5005478;28;20053;-82
2020/12/05 03:00:51;;;;;;;23.70;16.40;;;;;;;7.81;71.39;93739.38;4996480;28;20033;-82
2020/12/05 03:03:16;;;;;;;24.13;15.75;;;;;;;7.84;71.88;93750.16;5017602;28;20033;-82
2020/12/05 03:05:42;;;;;;;25.58;18.10;;;;;;;7.93;71.79;93747.72;5011690;28;20410;-82
2020/12/05 03:08:07;;;;;;;21.85;16.15;;;;;;;7.96;71.37;93756.94;5016688;28;20049;-82
2020/12/05 03:10:33;;;;;;;25.15;18.00;;;;;;;7.99;70.79;93756.38;5011584;28;20044;-82
2020/12/05 03:12:58;;;;;;;22.60;17.58;;;;;;;8.00;70.54;93750.84;5009890;28;20528;-82
2020/12/05 03:15:24;;;;;;;20.38;15.85;;;;;;;7.98;69.87;93744.28;5015911;28;20125;-82
2020/12/05 03:17:49;;;;;;;21.80;16.10;;;;;;;7.85;70.59;93750.94;5017323;28;20490;-82
2020/12/05 03:20:16;;;;;;;20.42;15.63;;;;;;;7.84;71.27;93741.47;5011071;28;20033;-82
2020/12/05 03:22:41;;;;;;;22.85;15.48;;;;;;;7.94;71.31;93748.50;5010995;28;20061;-82
2020/12/05 03:25:07;;;;;;;22.25;15.40;;;;;;;7.95;71.50;93748.25;5013089;28;20042;-82
2020/12/05 03:27:32;;;;;;;31.88;20.27;;;;;;;7.92;71.47;93743.50;5018112;28;20017;-82
2020/12/05 03:29:58;;;;;;;24.27;15.70;;;;;;;7.98;71.64;93755.59;5009032;28;20045;-82
2020/12/05 03:32:30;;;;;;;24.58;17.52;;;;;;;8.05;71.58;93771.88;5013378;28;20132;-82
2020/12/05 03:34:56;;;;;;;26.50;16.83;;;;;;;8.07;71.07;93767.09;5007222;28;20502;-82
2020/12/05 03:37:24;;;;;;;28.08;19.02;;;;;;;8.07;70.94;93774.19;5010877;28;20096;-82
2020/12/05 03:39:51;;;;;;;24.33;16.33;;;;;;;8.09;70.90;93770.25;5009068;28;20022;-82
2020/12/05 03:42:16;;;;;;;25.08;17.85;;;;;;;8.08;71.03;93773.16;5011913;28;20018;-82
2020/12/05 03:44:42;;;;;;;27.92;17.27;;;;;;;8.07;71.69;93769.72;5013745;28;20096;-82
2020/12/05 03:47:07;;;;;;;26.25;16.15;;;;;;;8.11;71.69;93776.00;5009088;28;20080;-82
2020/12/05 03:49:33;;;;;;;32.10;20.73;;;;;;;8.07;72.57;93775.00;5011312;28;20057;-82
2020/12/05 03:52:02;;;;;;;24.85;15.90;;;;;;;8.10;72.65;93774.47;5011353;28;20041;-82
2020/12/05 03:54:28;;;;;;;36.30;20.63;;;;;;;8.18;72.66;93780.97;5018779;28;20347;-82
2020/12/05 03:56:53;;;;;;;50.67;26.02;;;;;;;8.23;72.32;93781.75;5017702;28;20124;-82
2020/12/05 03:59:19;;;;;;;40.83;22.63;;;;;;;8.24;72.48;93775.41;5013147;28;20049;-82
2020/12/05 04:01:45;;;;;;;40.55;25.13;;;;;;;8.27;72.71;93780.13;5012664;28;20057;-82
2020/12/05 04:04:11;;;;;;;30.63;18.90;;;;;;;8.29;72.63;93777.22;5016568;28;20038;-82
2020/12/05 04:06:36;;;;;;;31.23;21.35;;;;;;;8.30;72.27;93776.22;5010684;28;20029;-82
2020/12/05 04:09:03;;;;;;;26.67;17.92;;;;;;;8.32;71.65;93776.69;5013427;28;20041;-82
2020/12/05 04:11:28;;;;;;;23.08;16.85;;;;;;;8.27;71.51;93777.50;5008341;28;20076;-82
2020/12/05 04:13:54;;;;;;;23.85;16.20;;;;;;;8.25;71.59;93782.25;5011190;28;20065;-82
2020/12/05 04:16:19;;;;;;;19.83;15.15;;;;;;;8.31;71.55;93790.91;5010853;28;20068;-82
2020/12/05 04:18:45;;;;;;;19.83;14.75;;;;;;;8.32;70.98;93787.22;5012438;28;20075;-82
2020/12/05 04:21:11;;;;;;;18.85;13.27;;;;;;;8.28;70.90;93792.25;5015760;28;20072;-82
2020/12/05 04:23:36;;;;;;;21.60;15.75;;;;;;;8.29;71.24;93790.41;5008725;28;20041;-82
2020/12/05 04:26:02;;;;;;;17.77;13.88;;;;;;;8.27;71.13;93795.13;5018107;28;20033;-81
2020/12/05 04:28:27;;;;;;;18.33;13.75;;;;;;;8.21;71.13;93785.69;5014164;28;20546;-81
2020/12/05 04:30:52;;;;;;;20.48;13.88;;;;;;;8.22;70.88;93787.28;5010417;28;20029;-82
2020/12/05 04:33:18;;;;;;;20.27;15.02;;;;;;;8.32;71.00;93789.06;5009052;28;20025;-82
2020/12/05 04:35:43;;;;;;;20.10;14.38;;;;;;;8.33;70.82;93793.28;5012177;28;20041;-82
2020/12/05 04:38:09;;;;;;;20.00;15.13;;;;;;;8.30;70.98;93791.22;5008256;28;20395;-82
2020/12/05 04:40:34;;;;;;;20.52;14.65;;;;;;;8.40;70.75;93793.78;5012104;28;20200;-81
2020/12/05 04:43:02;;;;;;;20.38;14.68;;;;;;;8.40;70.89;93793.78;5011359;28;20057;-82
2020/12/05 04:45:29;;;;;;;19.40;14.95;;;;;;;8.45;70.62;93802.44;5018086;28;20026;-82
2020/12/05 04:47:55;;;;;;;23.17;16.35;;;;;;;8.42;70.63;93797.69;5010724;28;20034;-82
2020/12/05 04:50:22;;;;;;;21.48;14.82;;;;;;;8.41;70.79;93796.13;5015972;28;20034;-82
2020/12/05 04:52:49;;;;;;;22.15;15.55;;;;;;;8.48;70.75;93803.72;5007017;28;20038;-82
2020/12/05 04:55:16;;;;;;;21.40;16.23;;;;;;;8.45;70.95;93799.00;5008714;28;20406;-81
2020/12/05 04:57:51;;;;;;;23.80;17.83;;;;;;;8.42;71.78;93808.22;5011598;28;20032;-81
2020/12/05 05:00:17;;;;;;;24.85;16.98;;;;;;;8.47;71.58;93807.41;5010801;28;20021;-82
2020/12/05 05:02:44;;;;;;;20.13;14.75;;;;;;;8.51;71.01;93818.97;5010027;28;20517;-81
2020/12/05 05:05:12;;;;;;;23.13;14.55;;;;;;;8.48;71.04;93811.63;5009609;28;20041;-81
2020/12/05 05:07:47;;;;;;;22.65;15.48;;;;;;;8.48;71.06;93809.78;5013046;28;20041;-82
2020/12/05 05:10:22;;;;;;;20.55;14.52;;;;;;;8.50;70.96;93810.25;5027085;28;20034;-82
2020/12/05 05:12:48;;;;;;;21.38;15.95;;;;;;;8.51;70.40;93813.69;5020984;28;20021;-82
2020/12/05 05:15:31;;;;;;;21.42;16.08;;;;;;;8.44;70.34;93811.38;5014776;28;20028;-82
2020/12/05 05:18:03;;;;;;;22.17;15.52;;;;;;;8.39;70.92;93819.31;5009297;28;20116;-82
2020/12/05 05:20:35;;;;;;;19.00;14.10;;;;;;;8.33;71.94;93816.97;4998348;28;20046;-83
2020/12/05 05:23:13;;;;;;;21.02;15.43;;;;;;;8.40;72.16;93814.84;4998900;28;20069;-82
2020/12/05 05:25:50;;;;;;;21.77;15.43;;;;;;;8.43;72.07;93814.28;4990520;28;20054;-81
2020/12/05 05:28:19;;;;;;;20.42;15.48;;;;;;;8.45;71.76;93814.81;4995942;28;20042;-81
2020/12/05 05:31:02;;;;;;;24.17;17.27;;;;;;;8.55;71.78;93822.63;5013048;28;20029;-81
2020/12/05 05:33:37;;;;;;;20.55;16.00;;;;;;;8.58;71.75;93824.72;5018357;28;20036;-81
2020/12/05 05:36:18;;;;;;;26.00;16.77;;;;;;;8.60;71.24;93809.44;4995088;28;20109;-82
2020/12/05 05:38:44;;;;;;;23.02;16.35;;;;;;;8.60;71.25;93817.34;5018208;28;20060;-81
2020/12/05 05:41:18;;;;;;;26.50;18.05;;;;;;;8.54;71.04;93806.03;4999036;28;20581;-82
2020/12/05 05:43:55;;;;;;;23.75;16.55;;;;;;;8.59;71.03;93818.38;5003314;28;20033;-82
2020/12/05 05:46:27;;;;;;;22.38;17.02;;;;;;;8.60;70.76;93820.72;5023273;28;20045;-81
2020/12/05 05:48:52;;;;;;;22.73;18.13;;;;;;;8.61;70.68;93822.31;5014059;28;20383;-82
2020/12/05 05:51:36;;;;;;;22.38;17.33;;;;;;;8.61;70.10;93816.25;5014174;28;20018;-82
2020/12/05 05:54:10;;;;;;;23.23;14.98;;;;;;;8.60;69.89;93822.59;5016913;28;20123;-81
2020/12/05 05:56:36;;;;;;;19.40;14.23;;;;;;;8.50;70.31;93814.78;5019338;28;20075;-82
2020/12/05 05:59:04;;;;;;;19.77;14.05;;;;;;;8.52;70.02;93816.06;5015988;28;20091;-82
2020/12/05 06:01:35;;;;;;;18.55;13.63;;;;;;;8.47;70.22;93824.00;5006135;28;20134;-81
2020/12/05 06:04:03;;;;;;;21.42;14.82;;;;;;;8.50;69.61;93828.69;4993877;28;20066;-82
2020/12/05 06:06:32;;;;;;;25.40;18.55;;;;;;;8.50;69.45;93814.78;4996241;28;20025;-82
2020/12/05 06:09:03;;;;;;;99.53;50.17;;;;;;;8.50;69.41;93825.31;5000204;28;20057;-82
2020/12/05 06:11:33;;;;;;;57.38;36.28;;;;;;;8.47;69.54;93836.38;4987889;28;20061;-82
2020/12/05 06:14:02;;;;;;;79.07;51.85;;;;;;;8.43;69.55;93832.72;4994555;28;20144;-81
2020/12/05 06:16:28;;;;;;;70.50;41.50;;;;;;;8.42;68.83;93834.56;4998236;28;20502;-82
2020/12/05 06:18:56;;;;;;;94.32;52.90;;;;;;;8.45;69.01;93838.50;4995720;28;20025;-82
2020/12/05 06:21:31;;;;;;;103.38;55.75;;;;;;;8.36;69.05;93845.38;5014137;28;20132;-82
2020/12/05 06:24:04;;;;;;;84.82;49.25;;;;;;;8.41;68.93;93854.03;5013799;28;20646;-82
2020/12/05 06:26:31;;;;;;;112.15;62.38;;;;;;;8.42;69.18;93854.84;5012814;28;20041;-82
2020/12/05 06:29:00;;;;;;;59.03;33.70;;;;;;;8.37;69.65;93854.88;5015145;28;20038;-81
2020/12/05 06:31:46;;;;;;;40.42;26.08;;;;;;;8.44;69.96;93869.31;5027294;28;20050;-81
2020/12/05 06:34:33;;;;;;;38.28;23.20;;;;;;;8.53;70.28;93862.41;5014178;28;20042;-81
2020/12/05 06:36:59;;;;;;;50.13;31.50;;;;;;;8.64;71.03;93869.19;5011679;28;20235;-82
2020/12/05 06:39:24;;;;;;;120.88;68.68;;;;;;;8.69;70.54;93876.28;5015299;28;20467;-82
2020/12/05 06:41:52;;;;;;;57.08;36.08;;;;;;;8.72;69.81;93877.56;5014155;28;20046;-81
2020/12/05 06:44:33;;;;;;;32.78;22.52;;;;;;;8.72;69.16;93880.97;4996916;28;20113;-81
2020/12/05 06:47:00;;;;;;;78.18;49.38;;;;;;;8.76;69.19;93883.84;4999908;28;20100;-81
2020/12/05 06:49:40;;;;;;;55.30;33.90;;;;;;;8.78;69.25;93887.78;4992028;28;20038;-81
2020/12/05 06:52:24;;;;;;;118.25;70.25;;;;;;;8.82;69.74;93890.66;4991120;28;20053;-82
2020/12/05 06:55:15;;;;;;;31.63;21.88;;;;;;;8.88;70.36;93885.09;4995125;28;20030;-81
2020/12/05 06:57:42;;;;;;;31.45;20.88;;;;;;;9.04;70.60;93889.16;4992733;28;20952;-81
2020/12/05 07:00:14;;;;;;;34.78;22.52;;;;;;;9.20;70.51;93881.13;5003964;28;20028;-81
2020/12/05 07:02:48;;;;;;;49.47;31.42;;;;;;;9.23;70.28;93875.31;5006212;28;20049;-82
2020/12/05 07:05:20;;;;;;;27.80;19.95;;;;;;;9.32;70.64;93884.19;5007841;28;20458;-82
2020/12/05 07:07:53;;;;;;;29.75;22.20;;;;;;;9.47;71.00;93884.84;5001616;28;20038;-82
2020/12/05 07:10:39;;;;;;;32.53;23.85;;;;;;;9.58;70.82;93888.91;5017007;28;20054;-81
2020/12/05 07:13:13;;;;;;;43.47;30.63;;;;;;;9.69;69.38;93886.19;5009915;28;20049;-82
2020/12/05 07:15:38;;;;;;;39.70;29.73;;;;;;;9.70;69.08;93896.47;5011356;28;20036;-82
2020/12/05 07:18:04;;;;;;;37.08;27.35;;;;;;;9.75;68.69;93883.22;5015576;28;20021;-82
2020/12/05 07:20:29;;;;;;;34.05;26.45;;;;;;;9.80;68.31;93885.00;5012362;28;20052;-82
2020/12/05 07:22:55;;;;;;;25.65;19.50;;;;;;;9.85;68.70;93893.66;5012448;28;20054;-82
2020/12/05 07:25:22;;;;;;;49.83;34.60;;;;;;;9.90;68.48;93893.59;5013867;28;20050;-82
2020/12/05 07:27:50;;;;;;;29.20;22.52;;;;;;;9.98;68.28;93898.25;5013283;28;20041;-82
2020/12/05 07:30:15;;;;;;;25.25;18.42;;;;;;;10.10;67.86;93905.78;5014707;28;20018;-81
2020/12/05 07:32:43;;;;;;;23.45;18.27;;;;;;;10.21;68.20;93902.00;5008850;28;20045;-82
2020/12/05 07:35:13;;;;;;;38.58;25.33;;;;;;;10.34;67.84;93903.13;5011883;28;20560;-82
2020/12/05 07:37:39;;;;;;;42.03;28.42;;;;;;;10.43;67.47;93896.94;5006684;28;20073;-82
2020/12/05 07:40:09;;;;;;;31.88;22.85;;;;;;;10.52;67.35;93902.38;5009641;28;20040;-82
2020/12/05 07:42:41;;;;;;;29.50;22.17;;;;;;;10.63;66.99;93901.16;5008360;28;20116;-81
2020/12/05 07:45:12;;;;;;;30.40;20.98;;;;;;;10.73;66.91;93903.66;5009463;28;20197;-82
2020/12/05 07:47:39;;;;;;;29.48;21.42;;;;;;;10.82;66.59;93907.22;5003897;28;20041;-81
2020/12/05 07:50:06;;;;;;;28.35;19.65;;;;;;;10.93;66.32;93913.16;5008771;28;20064;-82
2020/12/05 07:52:32;;;;;;;26.85;19.15;;;;;;;11.02;65.66;93915.94;5005729;28;20084;-82
2020/12/05 07:55:03;;;;;;;39.40;26.83;;;;;;;11.08;65.45;93914.78;5007282;28;20037;-82
2020/12/05 07:57:31;;;;;;;40.08;25.98;;;;;;;11.09;66.46;93916.38;5012710;28;20029;-82
2020/12/05 08:00:14;;;;;;;37.45;23.80;;;;;;;11.10;65.94;93912.63;5011766;28;20047;-82
2020/12/05 08:03:20;;;;;;;47.22;27.40;;;;;;;11.20;65.31;93915.91;5005200;28;20048;-81
2020/12/05 08:05:57;;;;;;;34.90;22.88;;;;;;;11.30;65.73;93918.38;4996657;28;20045;-82
2020/12/05 08:08:28;;;;;;;34.67;22.65;;;;;;;11.39;64.97;93915.84;4996418;28;20048;-82
2020/12/05 08:11:00;;;;;;;29.17;21.15;;;;;;;11.46;64.65;93915.50;4992768;28;20204;-82
2020/12/05 08:13:28;;;;;;;31.67;23.05;;;;;;;11.56;64.92;93917.97;4988221;28;20498;-81
2020/12/05 08:16:05;;;;;;;32.35;21.80;;;;;;;11.68;64.11;93921.69;4988669;28;20061;-81
2020/12/05 08:18:33;;;;;;;32.42;22.15;;;;;;;11.77;63.95;93921.88;4989406;28;20088;-82
2020/12/05 08:21:01;;;;;;;28.63;21.48;;;;;;;11.80;63.61;93915.19;5007568;28;20046;-82
2020/12/05 08:23:37;;;;;;;24.60;19.95;;;;;;;11.84;63.81;93932.84;5007758;28;20049;-82
2020/12/05 08:26:05;;;;;;;26.52;20.98;;;;;;;11.85;63.80;93939.72;5012616;28;20713;-82
2020/12/05 08:28:35;;;;;;;22.90;17.15;;;;;;;11.91;62.88;93937.75;5008992;28;20045;-82
2020/12/05 08:31:06;;;;;;;22.67;15.68;;;;;;;11.96;62.68;93937.66;5007894;28;20030;-81
2020/12/05 08:33:40;;;;;;;17.23;14.15;;;;;;;11.98;62.28;93943.44;5007670;28;20091;-81
2020/12/05 08:36:18;;;;;;;18.15;14.93;;;;;;;12.17;61.89;93954.72;5005999;28;20426;-81
2020/12/05 08:38:47;;;;;;;21.92;15.63;;;;;;;12.21;62.14;93942.50;4992242;28;20053;-81
2020/12/05 08:41:13;;;;;;;19.48;15.75;;;;;;;12.31;61.77;93960.84;4999460;28;20038;-82
2020/12/05 08:43:39;;;;;;;22.98;18.25;;;;;;;12.31;61.50;93952.09;5004792;28;20510;-80
2020/12/05 08:46:19;;;;;;;18.48;14.68;;;;;;;12.46;61.02;93955.22;5007723;28;20045;-81
2020/12/05 08:48:45;;;;;;;21.52;15.95;;;;;;;12.53;60.78;93947.66;5002435;28;20040;-82
2020/12/05 08:51:10;;;;;;;18.67;14.90;;;;;;;12.60;60.18;93947.28;5008132;28;20355;-80
2020/12/05 08:53:36;;;;;;;22.50;16.50;;;;;;;12.65;59.95;93947.16;5009809;28;20034;-81
2020/12/05 08:56:02;;;;;;;24.60;18.30;;;;;;;12.56;60.17;93944.41;5008489;28;20076;-82
2020/12/05 08:58:45;;;;;;;21.02;17.05;;;;;;;12.51;60.08;93931.25;5004175;28;20398;-80
2020/12/05 09:01:10;;;;;;;24.40;19.55;;;;;;;12.64;59.90;93952.75;5002146;28;20033;-81
2020/12/05 09:03:37;;;;;;;24.70;19.65;;;;;;;12.58;60.07;93955.50;5008548;28;20115;-81
2020/12/05 09:06:04;;;;;;;23.00;18.85;;;;;;;12.68;60.23;93959.03;5012041;28;20482;-80
2020/12/05 09:08:30;;;;;;;24.35;17.10;;;;;;;12.66;59.90;93953.25;5009283;28;20037;-82
2020/12/05 09:10:55;;;;;;;24.15;18.65;;;;;;;12.93;59.84;93958.50;5007752;28;20106;-82
2020/12/05 09:13:20;;;;;;;24.02;18.17;;;;;;;13.12;59.36;93961.81;5007629;28;20390;-82
2020/12/05 09:15:53;;;;;;;25.52;19.20;;;;;;;13.20;58.63;93958.44;5008840;28;20033;-82
2020/12/05 09:18:19;;;;;;;26.15;18.40;;;;;;;13.26;58.16;93961.75;5018161;28;20040;-82
2020/12/05 09:20:45;;;;;;;32.63;20.05;;;;;;;13.39;58.09;93960.91;5008005;28;20049;-82
2020/12/05 09:23:11;;;;;;;26.02;19.67;;;;;;;13.40;57.44;93952.66;5013180;28;20053;-81
2020/12/05 09:25:40;;;;;;;27.77;20.50;;;;;;;13.32;57.55;93956.06;5008853;28;20095;-82
2020/12/05 09:28:11;;;;;;;24.90;19.50;;;;;;;13.36;57.34;93958.88;5008617;28;20048;-82
2020/12/05 09:30:37;;;;;;;23.27;17.73;;;;;;;13.40;57.18;93957.19;5007116;28;20026;-82
2020/12/05 09:33:16;;;;;;;26.38;20.23;;;;;;;13.48;57.24;93951.16;4992744;28;20109;-82
2020/12/05 09:35:42;;;;;;;23.58;17.77;;;;;;;13.35;56.98;93954.66;4994713;28;20569;-81
2020/12/05 09:38:08;;;;;;;25.85;18.83;;;;;;;13.33;57.45;93957.63;4989206;28;20045;-83
2020/12/05 09:40:33;;;;;;;21.85;16.67;;;;;;;13.33;57.28;93954.19;4987908;28;20026;-82
2020/12/05 09:42:59;;;;;;;24.88;18.23;;;;;;;13.27;57.54;93952.72;4986092;28;20593;-80
2020/12/05 09:45:26;;;;;;;24.95;18.77;;;;;;;13.40;57.33;93957.97;4990748;28;20042;-81
2020/12/05 09:47:51;;;;;;;28.25;20.50;;;;;;;13.53;57.49;93944.94;4989506;28;20093;-79
2020/12/05 09:50:17;;;;;;;24.75;18.58;;;;;;;13.60;57.09;93950.59;5005759;28;20685;-81
2020/12/05 09:52:43;;;;;;;24.00;17.88;;;;;;;13.57;57.09;93949.34;5006239;28;20387;-79
2020/12/05 09:55:09;;;;;;;22.38;15.50;;;;;;;13.38;57.25;93948.75;5006707;28;20038;-80
2020/12/05 09:57:35;;;;;;;21.75;17.27;;;;;;;13.36;57.54;93935.00;5017755;28;20034;-80
2020/12/05 10:00:01;;;;;;;21.27;16.80;;;;;;;13.28;57.82;93943.69;5009282;28;20488;-80
2020/12/05 10:02:26;;;;;;;23.45;17.83;;;;;;;13.33;57.74;93946.22;5010425;28;20038;-81
2020/12/05 10:04:52;;;;;;;22.00;17.08;;;;;;;13.45;57.87;93946.44;4995584;28;20041;-83
2020/12/05 10:07:17;;;;;;;22.23;17.73;;;;;;;13.44;57.83;93945.66;5007760;28;20045;-82
2020/12/05 10:09:43;;;;;;;23.52;17.88;;;;;;;13.33;58.05;93947.00;4990543;28;20073;-82
2020/12/05 10:12:08;;;;;;;23.08;17.85;;;;;;;13.45;57.65;93941.13;5013820;28;20021;-83
2020/12/05 10:14:36;;;;;;;21.30;16.15;;;;;;;13.56;57.54;93936.38;4993673;28;20049;-82
2020/12/05 10:17:02;;;;;;;20.83;15.73;;;;;;;13.54;57.50;93941.97;4988853;28;20087;-79
2020/12/05 10:19:27;;;;;;;21.20;17.45;;;;;;;13.56;57.37;93939.81;4998575;28;20072;-79
2020/12/05 10:21:53;;;;;;;21.67;17.13;;;;;;;13.72;57.20;93942.88;5007254;28;20045;-82
2020/12/05 10:24:19;;;;;;;17.17;15.25;;;;;;;13.82;57.02;93932.00;5011134;28;20031;-82
2020/12/05 10:26:48;;;;;;;19.80;15.93;;;;;;;13.75;56.91;93935.09;5011120;28;20060;-82
2020/12/05 10:29:14;;;;;;;19.55;15.82;;;;;;;13.74;57.09;93930.84;5011658;28;20038;-81
2020/12/05 10:31:44;;;;;;;18.73;14.70;;;;;;;13.86;56.58;93932.97;5003900;28;20068;-81
2020/12/05 10:34:10;;;;;;;19.15;14.50;;;;;;;13.93;56.18;93927.97;4990199;28;20392;-80
2020/12/05 10:36:36;;;;;;;20.83;13.85;;;;;;;14.00;56.10;93933.66;4995313;28;20532;-81
2020/12/05 10:39:01;;;;;;;16.90;13.40;;;;;;;14.08;55.79;93919.59;4991492;28;20062;-79
2020/12/05 10:41:27;;;;;;;17.77;14.48;;;;;;;14.08;55.67;93924.13;4994195;28;20518;-79
2020/12/05 10:43:52;;;;;;;18.52;15.48;;;;;;;13.98;55.89;93909.25;4993018;28;20065;-78
2020/12/05 10:46:17;;;;;;;16.58;14.55;;;;;;;14.17;55.81;93917.00;4991506;28;20046;-81
2020/12/05 10:48:43;;;;;;;15.93;13.80;;;;;;;14.42;55.58;93915.50;4990533;28;20030;-81
2020/12/05 10:51:09;;;;;;;16.90;13.88;;;;;;;14.58;54.69;93914.00;4996004;28;20144;-80
2020/12/05 10:53:35;;;;;;;19.52;15.02;;;;;;;14.65;54.15;93912.47;5003325;28;20097;-80
2020/12/05 10:56:00;;;;;;;19.17;14.07;;;;;;;14.71;54.05;93915.72;5003105;28;20054;-79
2020/12/05 10:58:26;;;;;;;20.50;15.55;;;;;;;14.62;54.16;93909.63;5006996;28;20034;-79
2020/12/05 11:00:51;;;;;;;19.00;14.88;;;;;;;14.85;54.09;93913.75;5006663;28;20041;-81
2020/12/05 11:03:17;;;;;;;16.48;14.77;;;;;;;14.81;53.48;93912.78;4993886;28;20019;-80
2020/12/05 11:05:46;;;;;;;18.27;13.57;;;;;;;14.60;54.03;93901.19;5013412;28;20498;-81
2020/12/05 11:08:14;;;;;;;16.50;14.00;;;;;;;14.39;54.44;93903.63;4998260;28;20066;-83
2020/12/05 11:10:40;;;;;;;20.48;16.35;;;;;;;14.37;54.78;93910.38;4999774;28;20041;-80
2020/12/05 11:13:05;;;;;;;20.95;17.00;;;;;;;14.47;54.64;93910.84;5008834;28;20038;-81
2020/12/05 11:15:31;;;;;;;23.52;16.92;;;;;;;14.34;54.87;93906.41;5014686;28;20036;-80
2020/12/05 11:17:56;;;;;;;19.92;16.05;;;;;;;14.16;55.26;93904.78;5010590;28;20034;-79
2020/12/05 11:20:22;;;;;;;21.98;17.58;;;;;;;14.19;55.76;93904.97;5008676;28;20211;-80
2020/12/05 11:22:48;;;;;;;22.45;17.80;;;;;;;14.09;55.71;93899.91;5014783;28;20398;-79
2020/12/05 11:25:13;;;;;;;22.48;16.77;;;;;;;13.92;56.55;93899.88;5011065;28;20398;-80
2020/12/05 11:27:39;;;;;;;20.70;17.48;;;;;;;13.95;56.75;93896.59;5009564;28;20063;-80